Time;durP1;ratioP1;P1;durP2;ratioP2;P2;SDS_P1;SDS_P2;PMS_P1;PMS_P2;Temp;Humidity;BMP_temperature;BMP_pressure;BME280_temperature;BME280_humidity;BME280_pressure;Samples;Min_cycle;Max_cycle;Signal;HPM_P1;HPM_P2
2021/12/15 00:01:47;;;;;;;26.52;17.52;;;9.90;99.90;;;;;;5001401;28;20121;-71
2021/12/15 00:04:15;;;;;;;25.75;17.05;;;10.00;99.90;;;;;;5014070;28;20035;-72
2021/12/15 00:06:42;;;;;;;30.15;17.95;;;10.00;99.90;;;;;;5000928;28;20073;-73
2021/12/15 00:09:11;;;;;;;27.02;16.95;;;9.90;99.90;;;;;;4991304;28;20030;-71
2021/12/15 00:11:38;;;;;;;25.15;17.35;;;9.80;99.90;;;;;;4984415;28;20039;-73
2021/12/15 00:14:15;;;;;;;26.67;16.48;;;9.70;99.90;;;;;;4980527;28;20390;-71
2021/12/15 00:16:43;;;;;;;25.67;17.38;;;9.70;99.90;;;;;;4976579;28;20455;-71
2021/12/15 00:19:10;;;;;;;28.15;16.65;;;9.70;99.90;;;;;;5014807;28;20039;-72
2021/12/15 00:21:38;;;;;;;26.02;16.23;;;9.60;99.90;;;;;;4991722;28;20165;-74
2021/12/15 00:24:06;;;;;;;26.08;17.00;;;9.60;99.90;;;;;;5000034;28;20038;-71
2021/12/15 00:26:32;;;;;;;23.23;15.63;;;9.60;99.90;;;;;;4976227;28;20038;-73
2021/12/15 00:28:59;;;;;;;22.33;15.77;;;9.70;99.90;;;;;;4981367;28;20038;-72
2021/12/15 00:31:28;;;;;;;24.95;15.60;;;9.70;99.90;;;;;;5012076;28;20421;-71
2021/12/15 00:33:54;;;;;;;31.00;16.25;;;9.70;99.90;;;;;;5015293;28;20496;-72
2021/12/15 00:36:20;;;;;;;26.42;13.82;;;9.80;99.90;;;;;;5003928;28;20481;-73
2021/12/15 00:38:46;;;;;;;22.45;14.75;;;9.80;99.90;;;;;;5011216;28;20045;-72
2021/12/15 00:41:12;;;;;;;23.20;16.05;;;9.90;99.90;;;;;;4991813;28;20042;-72
2021/12/15 00:43:40;;;;;;;22.02;14.48;;;9.90;99.90;;;;;;4983250;28;20033;-71
2021/12/15 00:46:06;;;;;;;19.05;13.25;;;9.90;99.90;;;;;;4994122;28;20207;-71
2021/12/15 00:48:33;;;;;;;20.02;13.23;;;9.90;99.90;;;;;;5005454;28;20516;-72
2021/12/15 00:50:59;;;;;;;21.55;14.43;;;9.90;99.90;;;;;;5010974;28;20121;-71
2021/12/15 00:53:26;;;;;;;24.05;13.85;;;10.10;99.90;;;;;;5007835;28;20049;-71
2021/12/15 00:55:53;;;;;;;25.67;14.55;;;10.10;99.90;;;;;;5002165;28;20494;-72
2021/12/15 00:58:20;;;;;;;21.13;13.60;;;10.20;99.90;;;;;;5006584;28;20046;-72
2021/12/15 01:00:51;;;;;;;18.55;12.85;;;10.10;99.90;;;;;;5009249;28;20075;-71
2021/12/15 01:03:18;;;;;;;20.48;12.70;;;10.20;99.90;;;;;;5011198;28;20530;-72
2021/12/15 01:05:48;;;;;;;19.13;12.95;;;10.10;99.90;;;;;;5004856;28;20432;-72
2021/12/15 01:08:23;;;;;;;18.02;12.13;;;10.10;99.90;;;;;;4991850;28;20045;-72
2021/12/15 01:11:15;;;;;;;17.15;11.70;;;10.10;99.90;;;;;;4984115;28;20710;-72
2021/12/15 01:22:04;;;;;;;16.80;10.68;;;10.30;99.90;;;;;;5003941;28;20044;-72
2021/12/15 01:24:31;;;;;;;17.27;10.82;;;10.20;99.90;;;;;;4979891;28;20053;-71
2021/12/15 01:26:58;;;;;;;17.48;11.13;;;10.20;99.90;;;;;;4990701;28;20532;-71
2021/12/15 01:29:27;;;;;;;20.42;10.93;;;10.20;99.90;;;;;;5003036;28;20038;-72
2021/12/15 01:31:53;;;;;;;14.93;9.07;;;10.20;99.90;;;;;;5005426;28;20041;-71
2021/12/15 01:34:19;;;;;;;15.73;8.98;;;10.20;99.90;;;;;;5006288;28;20037;-71
2021/12/15 01:36:46;;;;;;;17.85;8.73;;;10.30;99.90;;;;;;5011885;28;20505;-72
2021/12/15 01:39:12;;;;;;;13.90;8.15;;;10.40;99.90;;;;;;5003764;28;20037;-72
2021/12/15 01:41:38;;;;;;;15.05;8.80;;;10.40;99.90;;;;;;5002723;28;20434;-73
2021/12/15 01:46:54;;;;;;;12.57;8.73;;;10.20;99.90;;;;;;5007976;28;20034;-73
2021/12/15 01:49:48;;;;;;;9.75;6.60;;;10.00;99.90;;;;;;5005625;28;20478;-72
2021/12/15 01:52:28;;;;;;;11.00;7.60;;;10.00;99.90;;;;;;4987875;28;20049;-71
2021/12/15 01:55:00;;;;;;;9.77;6.85;;;10.00;99.90;;;;;;5006407;28;20042;-73
2021/12/15 01:57:30;;;;;;;13.03;7.27;;;10.10;99.90;;;;;;5008819;28;20485;-72
2021/12/15 01:59:58;;;;;;;11.43;7.32;;;10.10;99.90;;;;;;5001554;28;20121;-72
2021/12/15 02:02:25;;;;;;;10.02;6.95;;;10.10;99.90;;;;;;5008705;28;20033;-72
2021/12/15 02:04:53;;;;;;;13.10;7.38;;;10.20;99.90;;;;;;5001429;28;20034;-72
2021/12/15 02:07:22;;;;;;;11.82;7.95;;;10.20;99.90;;;;;;5004380;28;20489;-72
2021/12/15 02:12:30;;;;;;;9.98;6.00;;;10.10;99.90;;;;;;5003752;28;20044;-72
2021/12/15 02:14:59;;;;;;;12.20;5.90;;;10.00;99.90;;;;;;4999753;28;20060;-72
2021/12/15 02:17:26;;;;;;;10.02;5.97;;;10.00;99.90;;;;;;5006397;28;20042;-71
2021/12/15 02:19:51;;;;;;;10.23;6.57;;;10.00;99.90;;;;;;5004277;28;20053;-72
2021/12/15 02:22:18;;;;;;;8.65;5.75;;;9.90;99.90;;;;;;5003325;28;20053;-73
2021/12/15 02:24:48;;;;;;;10.57;6.10;;;9.90;99.90;;;;;;4988027;28;20041;-70
2021/12/15 02:27:15;;;;;;;9.07;5.38;;;9.90;99.90;;;;;;5004689;28;20062;-72
2021/12/15 02:29:45;;;;;;;7.60;5.20;;;10.00;99.90;;;;;;5006646;28;20034;-74
2021/12/15 02:32:31;;;;;;;8.30;5.28;;;10.00;99.90;;;;;;4995491;28;20087;-73
2021/12/15 02:37:54;;;;;;;7.28;4.82;;;10.10;99.90;;;;;;4968439;28;20132;-73
2021/12/15 02:40:20;;;;;;;6.63;4.50;;;10.10;99.90;;;;;;5001016;28;20045;-72
2021/12/15 02:42:48;;;;;;;8.05;4.85;;;10.20;99.90;;;;;;5008925;28;20048;-71
2021/12/15 02:45:19;;;;;;;6.90;4.25;;;10.20;99.90;;;;;;5007816;28;20519;-72
2021/12/15 02:47:46;;;;;;;6.95;4.43;;;10.20;99.90;;;;;;5006896;28;20080;-72
2021/12/15 02:50:21;;;;;;;7.82;4.60;;;10.20;99.90;;;;;;5000837;28;20049;-71
2021/12/15 02:52:47;;;;;;;7.38;4.45;;;10.30;99.90;;;;;;5005157;28;20127;-72
2021/12/15 02:55:14;;;;;;;5.90;3.90;;;10.10;99.90;;;;;;5004264;28;20069;-74
2021/12/15 02:57:41;;;;;;;7.05;3.97;;;10.00;99.90;;;;;;5013378;28;20508;-72
2021/12/15 03:00:21;;;;;;;6.22;3.72;;;9.90;99.90;;;;;;4997271;28;20061;-73
2021/12/15 03:16:47;;;;;;;8.50;4.97;;;10.20;99.90;;;;;;4991641;28;20146;-72
2021/12/15 03:19:15;;;;;;;6.43;4.50;;;10.20;99.90;;;;;;4995258;28;20132;-71
2021/12/15 03:21:42;;;;;;;6.32;4.40;;;10.20;99.90;;;;;;4997468;28;20470;-72
2021/12/15 03:24:16;;;;;;;8.52;4.40;;;10.20;99.90;;;;;;4993715;28;20045;-71
2021/12/15 03:26:52;;;;;;;7.55;4.28;;;10.20;99.90;;;;;;4990592;28;20040;-72
2021/12/15 03:37:31;;;;;;;7.88;3.60;;;10.00;99.90;;;;;;4992643;28;20732;-72
2021/12/15 03:40:06;;;;;;;6.18;3.60;;;10.00;99.90;;;;;;5000640;28;20069;-71
2021/12/15 03:42:41;;;;;;;5.20;3.47;;;10.00;99.90;;;;;;4982807;28;20034;-72
2021/12/15 03:45:12;;;;;;;5.82;3.92;;;9.90;99.90;;;;;;5002923;28;20035;-71
2021/12/15 03:47:42;;;;;;;5.43;3.83;;;9.90;99.90;;;;;;4995094;28;20053;-73
2021/12/15 03:50:11;;;;;;;7.90;4.32;;;10.00;99.90;;;;;;5001638;28;20444;-71
2021/12/15 03:52:38;;;;;;;5.22;3.70;;;10.00;99.90;;;;;;5009977;28;20038;-72
2021/12/15 03:55:06;;;;;;;5.82;3.08;;;10.00;99.90;;;;;;4992183;28;20121;-72
2021/12/15 03:57:33;;;;;;;6.43;4.03;;;9.90;99.90;;;;;;4997267;28;20053;-72
2021/12/15 03:59:59;;;;;;;4.80;3.33;;;9.90;99.90;;;;;;5001542;28;20067;-70
2021/12/15 04:02:26;;;;;;;6.80;3.28;;;9.90;99.90;;;;;;5008307;28;20062;-73
2021/12/15 04:04:53;;;;;;;5.32;3.22;;;9.90;99.90;;;;;;5009138;28;20164;-72
2021/12/15 04:07:22;;;;;;;5.50;3.60;;;9.90;99.90;;;;;;5005197;28;20061;-72
2021/12/15 04:09:50;;;;;;;5.68;4.10;;;9.90;99.90;;;;;;4999700;28;20034;-72
2021/12/15 04:12:16;;;;;;;7.32;3.78;;;9.90;99.90;;;;;;5011651;28;20049;-71
2021/12/15 04:14:45;;;;;;;5.30;3.45;;;9.70;99.90;;;;;;5007363;28;20029;-71
2021/12/15 04:17:36;;;;;;;5.78;3.53;;;9.60;99.90;;;;;;4997875;28;20176;-72
2021/12/15 04:20:11;;;;;;;4.97;3.47;;;9.60;99.90;;;;;;5008175;28;20034;-72
2021/12/15 04:22:39;;;;;;;5.63;3.40;;;9.60;99.90;;;;;;5010235;28;20030;-71
2021/12/15 04:25:12;;;;;;;5.63;3.10;;;9.80;99.90;;;;;;5009696;28;20129;-72
2021/12/15 04:27:40;;;;;;;6.28;3.42;;;10.00;99.90;;;;;;5013286;28;20099;-70
2021/12/15 04:30:09;;;;;;;6.18;3.35;;;9.90;99.90;;;;;;5009815;28;20029;-70
2021/12/15 04:32:41;;;;;;;5.45;3.70;;;9.80;99.90;;;;;;5014825;28;20053;-71
2021/12/15 04:35:10;;;;;;;6.38;3.50;;;9.80;99.90;;;;;;4996648;28;20045;-72
2021/12/15 04:37:36;;;;;;;6.07;3.72;;;9.70;99.90;;;;;;4994245;28;20045;-71
2021/12/15 04:40:06;;;;;;;7.00;4.00;;;9.70;99.90;;;;;;5011697;28;20089;-72
2021/12/15 04:42:32;;;;;;;8.05;4.00;;;9.70;99.90;;;;;;5018324;28;20045;-71
2021/12/15 04:44:59;;;;;;;5.53;3.65;;;9.70;99.90;;;;;;5009621;28;20102;-72
2021/12/15 04:47:25;;;;;;;5.78;3.78;;;9.80;99.90;;;;;;5014179;28;20940;-72
2021/12/15 04:49:55;;;;;;;6.47;3.45;;;9.90;99.90;;;;;;5022479;28;20042;-72
2021/12/15 04:52:27;;;;;;;6.13;3.90;;;10.00;99.90;;;;;;5003653;28;20053;-71
2021/12/15 04:54:56;;;;;;;6.80;3.55;;;9.90;99.90;;;;;;5001638;28;20066;-72
2021/12/15 04:57:23;;;;;;;5.55;3.70;;;9.90;99.90;;;;;;5005810;28;20046;-73
2021/12/15 04:59:50;;;;;;;6.07;3.50;;;9.80;99.90;;;;;;4989455;28;20117;-72
2021/12/15 05:02:19;;;;;;;5.53;3.80;;;9.80;99.90;;;;;;5007238;28;20042;-73
2021/12/15 05:04:46;;;;;;;5.90;3.80;;;9.80;99.90;;;;;;4993838;28;20395;-71
2021/12/15 05:07:12;;;;;;;6.53;4.75;;;9.80;99.90;;;;;;5011151;28;20037;-74
2021/12/15 05:09:39;;;;;;;5.78;3.80;;;9.80;99.90;;;;;;4994163;28;20483;-71
2021/12/15 05:12:08;;;;;;;7.90;4.03;;;9.70;99.90;;;;;;5008980;28;20113;-73
2021/12/15 05:14:34;;;;;;;6.18;3.70;;;9.60;99.90;;;;;;5014568;28;20053;-72
2021/12/15 05:17:00;;;;;;;6.90;3.67;;;9.70;99.90;;;;;;5001935;28;20130;-72
2021/12/15 05:19:27;;;;;;;6.45;4.13;;;9.60;99.90;;;;;;5003608;28;20398;-72
2021/12/15 05:21:57;;;;;;;6.78;3.92;;;9.60;99.90;;;;;;5010285;28;20087;-71
2021/12/15 05:26:55;;;;;;;6.68;4.15;;;9.60;99.90;;;;;;5008095;28;20038;-72
2021/12/15 05:29:21;;;;;;;9.55;4.47;;;9.60;99.90;;;;;;5006183;28;20044;-72
2021/12/15 05:31:48;;;;;;;6.10;3.55;;;9.60;99.90;;;;;;5007794;28;20048;-73
2021/12/15 05:34:14;;;;;;;7.22;4.18;;;9.60;99.90;;;;;;5012156;28;20046;-72
2021/12/15 05:36:40;;;;;;;6.90;3.95;;;9.80;99.90;;;;;;5006926;28;20048;-71
2021/12/15 05:39:09;;;;;;;8.07;4.82;;;10.00;99.90;;;;;;4995460;28;20080;-72
2021/12/15 05:41:36;;;;;;;6.07;3.92;;;9.90;99.90;;;;;;5004624;28;20058;-73
2021/12/15 05:44:05;;;;;;;6.05;3.65;;;9.70;99.90;;;;;;4995795;28;20042;-71
2021/12/15 05:46:33;;;;;;;10.57;3.47;;;9.80;99.90;;;;;;5009021;28;20098;-72
2021/12/15 05:48:59;;;;;;;8.82;3.80;;;9.90;99.90;;;;;;5007510;28;20127;-72
2021/12/15 05:51:25;;;;;;;6.15;3.53;;;9.90;99.90;;;;;;4987023;28;20042;-72
2021/12/15 05:53:53;;;;;;;6.80;3.70;;;9.90;99.90;;;;;;4997938;28;20560;-71
2021/12/15 05:56:19;;;;;;;5.20;3.90;;;9.80;99.90;;;;;;5012662;28;20041;-71
2021/12/15 05:58:46;;;;;;;5.38;3.90;;;9.80;99.90;;;;;;5007797;28;20659;-71
2021/12/15 06:01:12;;;;;;;7.82;4.68;;;9.80;99.90;;;;;;4975806;28;20046;-72
2021/12/15 06:03:38;;;;;;;7.20;3.90;;;9.70;99.90;;;;;;5001960;28;20538;-71
2021/12/15 06:06:05;;;;;;;6.70;3.65;;;9.70;99.90;;;;;;5008690;28;20868;-72
2021/12/15 06:08:31;;;;;;;7.25;4.07;;;9.60;99.90;;;;;;5011376;28;20072;-71
2021/12/15 06:10:57;;;;;;;7.53;3.88;;;9.70;99.90;;;;;;4988645;28;20054;-72
2021/12/15 06:13:27;;;;;;;7.40;4.82;;;9.70;99.90;;;;;;5007441;28;20489;-71
2021/12/15 06:15:56;;;;;;;7.50;4.18;;;9.70;99.90;;;;;;4987764;28;20072;-72
2021/12/15 06:18:23;;;;;;;8.65;4.15;;;9.60;99.90;;;;;;5005131;28;20048;-72
2021/12/15 06:20:52;;;;;;;8.15;3.90;;;9.50;99.90;;;;;;5005827;28;20034;-73
2021/12/15 06:23:20;;;;;;;6.75;3.70;;;9.40;99.90;;;;;;5009260;28;20041;-74
2021/12/15 06:25:56;;;;;;;9.95;4.10;;;9.40;99.90;;;;;;5007551;28;20147;-72
2021/12/15 06:28:24;;;;;;;7.28;3.97;;;9.50;99.90;;;;;;4978512;28;20038;-72
2021/12/15 06:30:50;;;;;;;6.75;3.63;;;9.50;99.90;;;;;;5008869;28;20060;-71
2021/12/15 06:33:18;;;;;;;8.43;3.65;;;9.60;99.90;;;;;;5003078;28;20045;-71
2021/12/15 06:35:52;;;;;;;6.15;3.92;;;9.70;99.90;;;;;;5017834;28;20033;-71
2021/12/15 06:38:25;;;;;;;10.90;4.63;;;9.70;99.90;;;;;;4998149;28;20113;-73
2021/12/15 06:40:51;;;;;;;6.68;4.13;;;9.60;99.90;;;;;;5004915;28;20041;-72
2021/12/15 06:43:18;;;;;;;6.97;4.03;;;9.50;99.90;;;;;;5008989;28;20038;-73
2021/12/15 06:46:05;;;;;;;10.20;4.22;;;9.40;99.90;;;;;;5006830;28;20034;-73
2021/12/15 06:59:32;;;;;;;8.75;3.40;;;9.40;99.90;;;;;;5000710;28;20145;-73
2021/12/15 07:01:58;;;;;;;8.82;4.13;;;9.40;99.90;;;;;;5007138;28;20041;-72
2021/12/15 07:04:25;;;;;;;7.07;3.85;;;9.40;99.90;;;;;;5006354;28;20030;-72
2021/12/15 07:06:52;;;;;;;6.88;4.38;;;9.40;99.90;;;;;;4998196;28;20062;-71
2021/12/15 07:09:20;;;;;;;11.30;5.10;;;9.40;99.90;;;;;;5005125;28;20034;-72
2021/12/15 07:11:47;;;;;;;9.52;5.35;;;9.50;99.90;;;;;;5005768;28;20042;-71
2021/12/15 07:14:13;;;;;;;8.73;4.72;;;9.40;99.90;;;;;;5007729;28;20115;-72
2021/12/15 07:16:42;;;;;;;8.80;4.60;;;9.40;99.90;;;;;;5004917;28;20395;-71
2021/12/15 07:19:34;;;;;;;11.95;5.00;;;9.40;99.90;;;;;;5006292;28;20474;-72
2021/12/15 07:22:27;;;;;;;7.60;4.03;;;9.40;99.90;;;;;;4996025;28;20445;-73
2021/12/15 07:24:53;;;;;;;8.13;4.00;;;9.30;99.90;;;;;;5010429;28;20489;-72
2021/12/15 07:27:19;;;;;;;9.38;3.95;;;9.30;99.90;;;;;;5010494;28;20504;-73
2021/12/15 07:29:45;;;;;;;9.70;4.70;;;9.20;99.90;;;;;;5010371;28;20043;-71
2021/12/15 07:32:11;;;;;;;8.70;3.88;;;9.20;99.90;;;;;;5005297;28;20494;-72
2021/12/15 07:34:38;;;;;;;7.05;4.18;;;9.20;99.90;;;;;;5003710;28;20124;-71
2021/12/15 07:37:05;;;;;;;6.18;3.60;;;9.30;99.90;;;;;;5009449;28;20042;-72
2021/12/15 07:39:32;;;;;;;9.23;3.83;;;9.50;99.90;;;;;;4996036;28;20125;-73
2021/12/15 07:42:08;;;;;;;8.23;3.55;;;9.50;99.90;;;;;;5009966;28;20037;-72
2021/12/15 07:44:35;;;;;;;9.75;4.40;;;9.50;99.90;;;;;;4982470;28;20446;-73
2021/12/15 07:47:02;;;;;;;15.15;4.88;;;9.60;99.90;;;;;;5006116;28;20034;-71
2021/12/15 07:49:31;;;;;;;13.05;4.72;;;9.60;99.90;;;;;;5004752;28;20093;-73
2021/12/15 07:52:03;;;;;;;8.23;4.35;;;9.60;99.90;;;;;;5012348;28;20044;-71
2021/12/15 07:54:33;;;;;;;10.77;4.60;;;9.60;99.90;;;;;;4998468;28;20044;-72
2021/12/15 07:57:10;;;;;;;12.15;4.80;;;9.60;99.90;;;;;;5024344;28;20054;-72
2021/12/15 07:59:37;;;;;;;16.42;5.30;;;9.70;99.90;;;;;;4997816;28;20077;-72
2021/12/15 08:02:04;;;;;;;12.18;4.63;;;9.90;99.90;;;;;;4993931;28;20041;-72
2021/12/15 08:04:31;;;;;;;11.73;4.60;;;9.90;99.90;;;;;;5000382;28;20098;-73
2021/12/15 08:06:57;;;;;;;7.95;4.03;;;9.90;99.90;;;;;;5012023;28;20062;-72
2021/12/15 08:09:23;;;;;;;7.43;4.35;;;9.90;99.90;;;;;;5013049;28;20123;-71
2021/12/15 08:11:50;;;;;;;11.30;6.18;;;10.10;99.90;;;;;;4999407;28;20093;-72
2021/12/15 08:14:16;;;;;;;13.07;4.30;;;11.60;99.90;;;;;;4995038;28;20026;-72
2021/12/15 08:16:43;;;;;;;11.52;6.07;;;11.80;99.90;;;;;;4989873;28;20500;-72
2021/12/15 08:19:10;;;;;;;10.60;6.80;;;12.30;99.90;;;;;;4992020;28;20501;-72
2021/12/15 08:21:36;;;;;;;15.15;5.75;;;13.90;99.90;;;;;;4963394;28;21259;-71
2021/12/15 08:24:03;;;;;;;15.32;5.18;;;15.20;99.90;;;;;;4990310;28;20383;-74
2021/12/15 08:26:29;;;;;;;11.27;4.85;;;16.20;99.20;;;;;;4972098;28;20041;-72
2021/12/15 08:28:56;;;;;;;8.48;4.05;;;17.00;97.80;;;;;;4985142;28;20131;-73
2021/12/15 08:31:22;;;;;;;6.90;3.90;;;17.90;96.50;;;;;;4986059;28;21300;-73
2021/12/15 08:33:48;;;;;;;12.30;4.15;;;18.50;94.50;;;;;;4990681;28;20045;-73
2021/12/15 08:36:16;;;;;;;8.43;4.28;;;18.80;94.20;;;;;;4983205;28;20493;-72
2021/12/15 08:38:45;;;;;;;8.45;4.60;;;19.00;93.70;;;;;;4998194;28;20049;-71
2021/12/15 08:41:19;;;;;;;14.40;4.65;;;19.20;93.20;;;;;;4989745;28;20046;-72
2021/12/15 08:43:46;;;;;;;11.02;4.30;;;19.40;92.80;;;;;;4987257;28;20627;-71
2021/12/15 08:46:17;;;;;;;8.05;4.18;;;19.30;92.40;;;;;;4975108;28;20080;-72
2021/12/15 08:48:45;;;;;;;12.40;4.65;;;18.70;92.20;;;;;;4979390;28;20046;-72
2021/12/15 08:51:14;;;;;;;9.90;4.75;;;17.90;92.40;;;;;;4982558;28;20042;-72
2021/12/15 08:53:41;;;;;;;10.60;4.28;;;17.40;92.60;;;;;;4959945;28;20053;-73
2021/12/15 08:56:10;;;;;;;7.93;4.32;;;16.90;93.10;;;;;;4963747;28;20108;-72
2021/12/15 08:58:37;;;;;;;7.20;4.10;;;16.30;93.90;;;;;;4979532;28;20506;-73
2021/12/15 09:01:06;;;;;;;9.50;4.80;;;15.70;94.00;;;;;;5000658;28;20057;-73
2021/12/15 09:03:33;;;;;;;11.20;4.47;;;15.40;94.60;;;;;;4978680;28;20091;-72
2021/12/15 09:06:01;;;;;;;11.73;3.83;;;15.30;95.30;;;;;;4984463;28;20489;-73
2021/12/15 09:08:28;;;;;;;7.90;4.20;;;15.10;95.60;;;;;;5004125;28;20457;-72
2021/12/15 09:11:01;;;;;;;13.43;4.93;;;15.10;95.60;;;;;;4955242;28;20624;-72
2021/12/15 09:13:30;;;;;;;9.57;4.82;;;15.00;95.70;;;;;;5010666;28;20045;-72
2021/12/15 09:16:21;;;;;;;12.23;5.05;;;15.00;96.00;;;;;;5005852;28;20041;-74
2021/12/15 09:18:54;;;;;;;13.68;5.65;;;15.00;96.50;;;;;;4994883;28;20040;-70
2021/12/15 09:21:25;;;;;;;10.27;5.78;;;14.90;96.30;;;;;;4993504;28;20512;-72
2021/12/15 09:23:51;;;;;;;13.75;5.55;;;15.40;96.30;;;;;;4965462;28;20038;-74
2021/12/15 09:26:20;;;;;;;15.98;5.32;;;15.80;95.90;;;;;;4987868;28;20046;-73
2021/12/15 09:28:47;;;;;;;18.75;5.97;;;16.10;95.70;;;;;;4978737;28;20045;-75
2021/12/15 09:31:15;;;;;;;14.85;6.10;;;16.40;95.70;;;;;;4983057;28;21174;-71
2021/12/15 09:33:45;;;;;;;12.75;6.00;;;16.60;95.50;;;;;;4973609;28;20382;-72
2021/12/15 09:36:13;;;;;;;16.27;6.20;;;16.80;95.10;;;;;;4979885;28;20042;-72
2021/12/15 09:38:40;;;;;;;11.45;5.97;;;17.00;95.00;;;;;;4980427;28;20045;-72
2021/12/15 09:41:11;;;;;;;12.63;5.75;;;16.90;94.50;;;;;;4973177;28;20049;-73
2021/12/15 09:43:38;;;;;;;9.93;5.35;;;16.90;94.50;;;;;;4974481;28;20069;-73
2021/12/15 09:46:17;;;;;;;12.18;4.80;;;16.80;94.60;;;;;;4967108;28;20486;-76
2021/12/15 10:03:01;;;;;;;7.30;4.28;;;17.10;94.60;;;;;;4967379;28;20053;-73
2021/12/15 10:10:49;;;;;;;9.27;5.28;;;17.50;94.10;;;;;;4975420;28;20058;-74
2021/12/15 10:19:26;;;;;;;11.32;4.95;;;17.90;93.60;;;;;;4980436;28;20057;-74
2021/12/15 10:22:16;;;;;;;9.02;4.78;;;18.30;93.60;;;;;;4981441;28;20173;-72
2021/12/15 10:25:04;;;;;;;10.55;4.82;;;18.60;93.20;;;;;;4983214;28;20034;-73
2021/12/15 10:27:48;;;;;;;6.70;5.20;;;18.80;92.80;;;;;;4961020;28;20042;-74
2021/12/15 10:30:25;;;;;;;9.00;5.18;;;19.30;92.60;;;;;;4976380;28;20690;-73
2021/12/15 10:33:21;;;;;;;8.95;4.97;;;19.50;92.10;;;;;;4981621;28;20069;-72
2021/12/15 10:35:58;;;;;;;6.00;4.28;;;19.80;91.80;;;;;;4960881;28;20101;-71
2021/12/15 10:38:30;;;;;;;6.50;4.40;;;20.00;91.10;;;;;;4971940;28;20055;-72
2021/12/15 10:41:20;;;;;;;8.13;4.63;;;20.10;91.00;;;;;;4986503;28;20077;-73
2021/12/15 10:43:58;;;;;;;8.15;4.47;;;20.30;90.90;;;;;;4970760;28;20050;-72
2021/12/15 10:46:31;;;;;;;9.13;4.88;;;20.30;90.80;;;;;;4935003;28;20056;-72
2021/12/15 10:49:03;;;;;;;9.95;4.97;;;20.40;90.80;;;;;;4993621;28;20045;-75
2021/12/15 10:51:44;;;;;;;9.52;4.43;;;20.70;90.70;;;;;;5008565;28;20588;-73
2021/12/15 10:54:24;;;;;;;6.55;4.55;;;20.80;90.50;;;;;;4968672;28;20034;-71
2021/12/15 10:57:28;;;;;;;6.05;4.10;;;20.90;90.50;;;;;;4976628;28;20038;-74
2021/12/15 10:59:56;;;;;;;4.97;3.38;;;21.60;89.70;;;;;;4975466;28;20041;-70
2021/12/15 11:02:29;;;;;;;5.70;3.20;;;22.00;88.30;;;;;;4987140;28;20409;-72
2021/12/15 11:05:00;;;;;;;5.70;3.50;;;22.00;88.00;;;;;;4982403;28;20045;-73
2021/12/15 11:07:40;;;;;;;6.38;3.33;;;21.80;87.90;;;;;;4980470;28;20066;-74
2021/12/15 11:10:12;;;;;;;3.70;2.83;;;22.20;86.80;;;;;;4981986;28;20417;-73
2021/12/15 11:12:48;;;;;;;7.53;3.47;;;22.80;85.60;;;;;;4994233;28;20754;-74
2021/12/15 11:15:27;;;;;;;5.78;3.78;;;22.70;84.60;;;;;;4984333;28;20046;-72
2021/12/15 11:18:00;;;;;;;9.52;3.60;;;22.60;84.80;;;;;;4966972;28;22349;-71
2021/12/15 11:20:42;;;;;;;6.10;3.90;;;23.00;85.30;;;;;;4989410;28;20073;-75
2021/12/15 11:23:11;;;;;;;;;;;23.30;84.70;;;;;;4968552;28;20069;-74
2021/12/15 11:25:39;;;;;;;;;;;23.80;83.80;;;;;;4963949;28;19914;-73
2021/12/15 11:28:14;;;;;;;8.88;4.40;;;24.00;82.70;;;;;;4981886;28;19972;-73
2021/12/15 11:31:06;;;;;;;10.73;4.20;;;24.10;82.70;;;;;;4995719;28;20664;-72
2021/12/15 11:33:39;;;;;;;14.38;5.93;;;23.70;81.80;;;;;;4970255;28;20108;-72
2021/12/15 11:36:16;;;;;;;12.90;7.07;;;23.90;82.90;;;;;;4959472;28;20045;-72
2021/12/15 11:38:50;;;;;;;12.85;6.38;;;23.80;82.90;;;;;;4979041;28;20054;-72
2021/12/15 11:41:32;;;;;;;20.98;7.93;;;24.20;82.30;;;;;;4982262;28;21293;-72
2021/12/15 11:44:05;;;;;;;17.15;8.73;;;24.40;82.40;;;;;;4975977;28;20148;-72
2021/12/15 11:46:35;;;;;;;20.77;8.13;;;24.50;81.90;;;;;;4969028;28;20038;-73
2021/12/15 11:49:13;;;;;;;13.27;8.90;;;24.30;81.90;;;;;;4968271;28;20049;-73
2021/12/15 11:51:46;;;;;;;19.10;8.85;;;24.30;81.50;;;;;;4984169;28;20046;-74
2021/12/15 11:54:28;;;;;;;13.38;9.10;;;24.50;81.90;;;;;;4990201;28;20105;-71
2021/12/15 11:57:05;;;;;;;17.45;8.93;;;24.30;80.90;;;;;;4991714;28;20077;-72
2021/12/15 11:59:49;;;;;;;13.75;8.98;;;24.70;80.90;;;;;;4990664;28;20043;-73
2021/12/15 12:02:30;;;;;;;15.23;8.95;;;24.80;79.80;;;;;;4959057;28;20480;-72
2021/12/15 12:05:13;;;;;;;17.50;8.80;;;24.80;80.40;;;;;;4966961;28;20027;-72
2021/12/15 12:07:44;;;;;;;12.80;9.02;;;25.30;80.00;;;;;;4971550;28;20042;-73
2021/12/15 12:10:32;;;;;;;21.67;9.07;;;25.50;79.30;;;;;;4934366;28;20130;-74
2021/12/15 12:13:14;;;;;;;17.55;9.52;;;25.70;79.20;;;;;;4982652;28;21924;-72
2021/12/15 12:15:44;;;;;;;17.70;8.88;;;25.80;78.60;;;;;;4979884;28;20073;-72
2021/12/15 12:18:23;;;;;;;20.27;9.27;;;25.30;78.90;;;;;;4985224;28;20572;-73
2021/12/15 12:20:54;;;;;;;21.42;9.32;;;26.10;78.50;;;;;;4988803;28;20041;-72
2021/12/15 12:23:27;;;;;;;21.57;9.37;;;26.70;78.00;;;;;;4974032;28;20092;-73
2021/12/15 12:26:04;;;;;;;19.50;9.77;;;26.20;77.00;;;;;;4988051;28;20046;-72
2021/12/15 12:28:33;;;;;;;14.25;9.48;;;25.70;77.50;;;;;;4984151;28;20047;-73
2021/12/15 12:31:23;;;;;;;17.42;9.48;;;25.70;77.90;;;;;;4999829;28;20042;-74
2021/12/15 12:33:49;;;;;;;13.18;8.18;;;26.00;77.00;;;;;;4983562;28;20130;-72
2021/12/15 12:36:21;;;;;;;16.92;9.55;;;26.40;76.90;;;;;;4992247;28;20034;-73
2021/12/15 12:38:53;;;;;;;19.02;10.07;;;26.20;76.10;;;;;;5000830;28;20488;-73
2021/12/15 12:41:21;;;;;;;;;;;26.10;76.50;;;;;;4994089;28;20049;-74
2021/12/15 12:43:57;;;;;;;19.95;9.50;;;26.30;76.80;;;;;;4991035;28;19918;-75
2021/12/15 12:46:45;;;;;;;18.08;9.40;;;26.70;76.00;;;;;;4998835;28;20053;-73
2021/12/15 13:00:31;;;;;;;14.25;9.23;;;26.20;76.40;;;;;;4973734;28;21353;-74
2021/12/15 13:03:14;;;;;;;14.43;8.77;;;26.90;75.50;;;;;;4998769;28;20037;-73
2021/12/15 13:05:42;;;;;;;14.98;9.27;;;26.70;75.20;;;;;;4957192;28;20034;-72
2021/12/15 13:08:40;;;;;;;15.15;9.50;;;26.90;75.60;;;;;;4983756;28;20026;-73
2021/12/15 13:11:15;;;;;;;14.02;9.40;;;26.80;75.50;;;;;;4971641;28;20045;-74
2021/12/15 13:14:09;;;;;;;15.98;8.88;;;26.10;75.70;;;;;;5008051;28;20084;-74
2021/12/15 13:16:50;;;;;;;18.63;8.90;;;26.30;75.80;;;;;;5011787;28;20034;-75
2021/12/15 13:19:20;;;;;;;15.45;8.68;;;26.70;75.20;;;;;;5008768;28;20046;-74
2021/12/15 13:21:52;;;;;;;13.23;7.55;;;27.10;74.70;;;;;;4994796;28;20034;-74
2021/12/15 13:30:52;;;;;;;12.77;7.70;;;25.70;75.00;;;;;;4990378;28;20116;-73
2021/12/15 13:33:34;;;;;;;13.65;7.97;;;26.10;74.70;;;;;;5000745;28;20030;-75
2021/12/15 13:36:05;;;;;;;;;;;26.10;75.20;;;;;;5006641;28;20029;-73
2021/12/15 13:38:44;;;;;;;15.55;9.18;;;26.50;74.80;;;;;;4989230;28;19968;-74
2021/12/15 13:41:22;;;;;;;13.70;8.63;;;26.00;74.40;;;;;;4985469;28;20088;-73
2021/12/15 13:43:53;;;;;;;15.68;8.88;;;25.10;75.70;;;;;;5008164;28;20049;-73
2021/12/15 13:46:39;;;;;;;19.67;10.20;;;24.90;75.80;;;;;;4988634;28;20061;-75
2021/12/15 13:49:28;;;;;;;19.48;10.15;;;25.30;76.00;;;;;;4987445;28;20065;-73
2021/12/15 13:52:09;;;;;;;17.92;14.18;;;25.20;76.30;;;;;;5002779;28;20041;-73
2021/12/15 13:54:38;;;;;;;22.23;12.07;;;25.30;77.00;;;;;;4997265;28;20038;-73
2021/12/15 13:57:13;;;;;;;16.98;9.98;;;25.80;76.80;;;;;;5000082;28;20492;-73
2021/12/15 14:00:09;;;;;;;14.73;10.30;;;25.90;76.10;;;;;;5003930;28;20061;-73
2021/12/15 14:02:42;;;;;;;15.63;8.98;;;26.00;76.20;;;;;;4973342;28;20030;-74
2021/12/15 14:05:14;;;;;;;16.15;9.55;;;25.60;76.50;;;;;;4985708;28;20082;-73
2021/12/15 14:07:46;;;;;;;12.73;8.80;;;25.80;76.70;;;;;;4987186;28;20046;-74
2021/12/15 14:10:12;;;;;;;17.02;9.45;;;26.20;76.80;;;;;;4990795;28;20384;-72
2021/12/15 14:12:44;;;;;;;18.10;9.10;;;26.30;76.90;;;;;;4996904;28;20045;-73
2021/12/15 14:15:27;;;;;;;22.17;9.93;;;26.30;76.20;;;;;;5012101;28;20501;-72
2021/12/15 14:18:11;;;;;;;16.45;9.60;;;26.40;76.00;;;;;;4976641;28;20042;-75
2021/12/15 14:20:43;;;;;;;13.63;9.43;;;26.10;76.10;;;;;;4998795;28;20035;-73
2021/12/15 14:23:22;;;;;;;18.02;9.02;;;25.40;76.70;;;;;;4992969;28;20042;-72
2021/12/15 14:25:49;;;;;;;13.15;8.27;;;25.60;77.10;;;;;;4992840;28;20046;-73
2021/12/15 14:28:17;;;;;;;15.82;9.05;;;25.30;77.00;;;;;;4999465;28;20567;-73
2021/12/15 14:30:46;;;;;;;15.43;9.88;;;25.30;77.50;;;;;;4987733;28;20034;-74
2021/12/15 14:33:18;;;;;;;16.42;9.43;;;25.20;77.80;;;;;;4982458;28;20108;-73
2021/12/15 14:35:46;;;;;;;17.58;9.32;;;24.70;78.50;;;;;;5005704;28;20061;-73
2021/12/15 14:38:12;;;;;;;21.30;9.82;;;24.90;78.80;;;;;;5008235;28;20053;-72
2021/12/15 14:40:38;;;;;;;20.17;10.10;;;24.80;79.00;;;;;;5000114;28;20037;-73
2021/12/15 14:43:05;;;;;;;16.38;10.02;;;24.90;78.80;;;;;;4996208;28;20038;-73